sensor_id;sensor_type;location;lat;lon;timestamp;P1;durP1;ratioP1;P2;durP2;ratioP2
74614;SDS011;63121;51.458;-0.110;2023-04-03T00:00:34;5.30;;;1.10;;
74614;SDS011;63121;51.458;-0.110;2023-04-03T00:03:02;5.55;;;1.38;;
74614;SDS011;63121;51.458;-0.110;2023-04-03T00:05:28;4.22;;;1.00;;
74614;SDS011;63121;51.458;-0.110;2023-04-03T00:07:56;4.40;;;1.10;;
74614;SDS011;63121;51.458;-0.110;2023-04-03T00:10:26;4.13;;;1.00;;
74614;SDS011;63121;51.458;-0.110;2023-04-03T00:12:52;8.23;;;1.20;;
74614;SDS011;63121;51.458;-0.110;2023-04-03T00:15:17;3.03;;;1.00;;
74614;SDS011;63121;51.458;-0.110;2023-04-03T00:17:43;7.03;;;1.35;;
74614;SDS011;63121;51.458;-0.110;2023-04-03T00:20:09;6.72;;;1.00;;
74614;SDS011;63121;51.458;-0.110;2023-04-03T00:22:40;4.57;;;0.88;;
74614;SDS011;63121;51.458;-0.110;2023-04-03T00:25:05;7.30;;;1.10;;
74614;SDS011;63121;51.458;-0.110;2023-04-03T00:27:31;6.20;;;1.20;;
74614;SDS011;63121;51.458;-0.110;2023-04-03T00:29:57;3.45;;;0.90;;
74614;SDS011;63121;51.458;-0.110;2023-04-03T00:32:22;7.50;;;1.30;;
74614;SDS011;63121;51.458;-0.110;2023-04-03T00:34:48;5.30;;;1.35;;
74614;SDS011;63121;51.458;-0.110;2023-04-03T00:37:14;6.10;;;0.95;;
74614;SDS011;63121;51.458;-0.110;2023-04-03T00:39:39;5.50;;;1.10;;
74614;SDS011;63121;51.458;-0.110;2023-04-03T00:42:08;5.63;;;1.17;;
74614;SDS011;63121;51.458;-0.110;2023-04-03T00:47:03;3.90;;;1.03;;
74614;SDS011;63121;51.458;-0.110;2023-04-03T00:49:31;2.47;;;0.90;;
74614;SDS011;63121;51.458;-0.110;2023-04-03T00:51:56;5.18;;;1.00;;
74614;SDS011;63121;51.458;-0.110;2023-04-03T00:54:23;6.60;;;1.60;;
74614;SDS011;63121;51.458;-0.110;2023-04-03T00:56:50;4.15;;;0.88;;
74614;SDS011;63121;51.458;-0.110;2023-04-03T00:59:20;5.43;;;1.30;;
74614;SDS011;63121;51.458;-0.110;2023-04-03T01:01:52;5.40;;;1.25;;
74614;SDS011;63121;51.458;-0.110;2023-04-03T01:06:54;3.50;;;1.00;;
74614;SDS011;63121;51.458;-0.110;2023-04-03T01:09:23;4.88;;;0.90;;
74614;SDS011;63121;51.458;-0.110;2023-04-03T01:11:49;6.78;;;1.52;;
74614;SDS011;63121;51.458;-0.110;2023-04-03T01:14:14;6.60;;;1.40;;
74614;SDS011;63121;51.458;-0.110;2023-04-03T01:16:39;5.95;;;1.55;;
74614;SDS011;63121;51.458;-0.110;2023-04-03T01:19:06;5.45;;;1.35;;
74614;SDS011;63121;51.458;-0.110;2023-04-03T01:27:04;6.82;;;1.20;;
74614;SDS011;63121;51.458;-0.110;2023-04-03T01:29:33;7.57;;;1.20;;
74614;SDS011;63121;51.458;-0.110;2023-04-03T01:32:00;8.50;;;1.40;;
74614;SDS011;63121;51.458;-0.110;2023-04-03T01:34:27;5.95;;;1.20;;
74614;SDS011;63121;51.458;-0.110;2023-04-03T01:36:53;9.10;;;1.67;;
74614;SDS011;63121;51.458;-0.110;2023-04-03T01:39:19;5.57;;;1.00;;
74614;SDS011;63121;51.458;-0.110;2023-04-03T01:41:46;4.22;;;1.20;;
74614;SDS011;63121;51.458;-0.110;2023-04-03T01:44:12;3.15;;;0.82;;
74614;SDS011;63121;51.458;-0.110;2023-04-03T01:46:38;6.03;;;1.40;;
74614;SDS011;63121;51.458;-0.110;2023-04-03T01:49:04;7.82;;;1.60;;
74614;SDS011;63121;51.458;-0.110;2023-04-03T01:51:30;6.43;;;1.25;;
74614;SDS011;63121;51.458;-0.110;2023-04-03T01:53:55;4.05;;;1.23;;
74614;SDS011;63121;51.458;-0.110;2023-04-03T01:56:21;3.97;;;1.25;;
74614;SDS011;63121;51.458;-0.110;2023-04-03T01:58:47;4.25;;;0.98;;
74614;SDS011;63121;51.458;-0.110;2023-04-03T02:01:13;6.30;;;1.20;;
74614;SDS011;63121;51.458;-0.110;2023-04-03T02:03:38;4.03;;;0.90;;
74614;SDS011;63121;51.458;-0.110;2023-04-03T02:06:03;7.28;;;1.30;;
74614;SDS011;63121;51.458;-0.110;2023-04-03T02:08:29;3.35;;;0.95;;
74614;SDS011;63121;51.458;-0.110;2023-04-03T02:10:54;14.00;;;1.57;;
74614;SDS011;63121;51.458;-0.110;2023-04-03T02:13:20;5.05;;;0.80;;
74614;SDS011;63121;51.458;-0.110;2023-04-03T02:15:45;3.83;;;1.00;;
74614;SDS011;63121;51.458;-0.110;2023-04-03T02:18:15;6.57;;;1.10;;
74614;SDS011;63121;51.458;-0.110;2023-04-03T02:20:40;5.93;;;1.15;;
74614;SDS011;63121;51.458;-0.110;2023-04-03T02:23:06;8.63;;;1.35;;
74614;SDS011;63121;51.458;-0.110;2023-04-03T02:28:07;3.90;;;0.85;;
74614;SDS011;63121;51.458;-0.110;2023-04-03T02:30:33;3.83;;;1.00;;
74614;SDS011;63121;51.458;-0.110;2023-04-03T02:32:58;5.63;;;1.52;;
74614;SDS011;63121;51.458;-0.110;2023-04-03T02:35:24;4.15;;;0.90;;
74614;SDS011;63121;51.458;-0.110;2023-04-03T02:37:49;5.38;;;1.08;;
74614;SDS011;63121;51.458;-0.110;2023-04-03T02:40:16;6.60;;;1.10;;
74614;SDS011;63121;51.458;-0.110;2023-04-03T02:42:41;5.63;;;0.90;;
74614;SDS011;63121;51.458;-0.110;2023-04-03T02:45:10;6.32;;;1.27;;
74614;SDS011;63121;51.458;-0.110;2023-04-03T02:47:35;3.63;;;0.95;;
74614;SDS011;63121;51.458;-0.110;2023-04-03T02:50:01;6.93;;;1.00;;
74614;SDS011;63121;51.458;-0.110;2023-04-03T02:52:27;7.03;;;0.98;;
74614;SDS011;63121;51.458;-0.110;2023-04-03T02:54:55;4.47;;;0.98;;
74614;SDS011;63121;51.458;-0.110;2023-04-03T02:57:20;3.80;;;0.97;;
74614;SDS011;63121;51.458;-0.110;2023-04-03T02:59:46;3.58;;;1.10;;
74614;SDS011;63121;51.458;-0.110;2023-04-03T03:02:11;3.92;;;0.90;;
74614;SDS011;63121;51.458;-0.110;2023-04-03T03:04:39;5.57;;;0.90;;
74614;SDS011;63121;51.458;-0.110;2023-04-03T03:07:05;5.18;;;1.30;;
74614;SDS011;63121;51.458;-0.110;2023-04-03T03:09:30;3.63;;;0.82;;
74614;SDS011;63121;51.458;-0.110;2023-04-03T03:11:56;6.25;;;1.00;;
74614;SDS011;63121;51.458;-0.110;2023-04-03T03:14:22;7.13;;;1.23;;
74614;SDS011;63121;51.458;-0.110;2023-04-03T03:16:48;6.53;;;1.13;;
74614;SDS011;63121;51.458;-0.110;2023-04-03T03:19:14;6.78;;;1.15;;
74614;SDS011;63121;51.458;-0.110;2023-04-03T03:21:39;6.07;;;1.10;;
74614;SDS011;63121;51.458;-0.110;2023-04-03T03:24:05;3.77;;;0.87;;
74614;SDS011;63121;51.458;-0.110;2023-04-03T03:26:31;5.38;;;1.35;;
74614;SDS011;63121;51.458;-0.110;2023-04-03T03:28:56;2.15;;;0.85;;
74614;SDS011;63121;51.458;-0.110;2023-04-03T03:31:22;6.22;;;1.25;;
74614;SDS011;63121;51.458;-0.110;2023-04-03T03:33:47;7.22;;;1.50;;
74614;SDS011;63121;51.458;-0.110;2023-04-03T03:36:13;9.40;;;1.20;;
74614;SDS011;63121;51.458;-0.110;2023-04-03T03:38:38;8.98;;;1.35;;
74614;SDS011;63121;51.458;-0.110;2023-04-03T03:41:04;3.10;;;1.00;;
74614;SDS011;63121;51.458;-0.110;2023-04-03T03:43:30;6.93;;;1.30;;
74614;SDS011;63121;51.458;-0.110;2023-04-03T03:45:56;5.32;;;1.30;;
74614;SDS011;63121;51.458;-0.110;2023-04-03T03:48:21;8.30;;;1.77;;
74614;SDS011;63121;51.458;-0.110;2023-04-03T03:50:47;7.13;;;1.27;;
74614;SDS011;63121;51.458;-0.110;2023-04-03T03:53:13;5.05;;;1.13;;
74614;SDS011;63121;51.458;-0.110;2023-04-03T03:55:39;5.20;;;1.10;;
74614;SDS011;63121;51.458;-0.110;2023-04-03T03:58:05;7.43;;;1.20;;
74614;SDS011;63121;51.458;-0.110;2023-04-03T04:00:30;6.63;;;1.30;;
74614;SDS011;63121;51.458;-0.110;2023-04-03T04:02:56;1.83;;;0.82;;
74614;SDS011;63121;51.458;-0.110;2023-04-03T04:05:22;4.53;;;1.15;;
74614;SDS011;63121;51.458;-0.110;2023-04-03T04:07:47;3.97;;;1.00;;
74614;SDS011;63121;51.458;-0.110;2023-04-03T04:10:13;7.18;;;1.27;;
74614;SDS011;63121;51.458;-0.110;2023-04-03T04:12:38;5.93;;;1.08;;
74614;SDS011;63121;51.458;-0.110;2023-04-03T04:15:04;5.65;;;1.30;;
74614;SDS011;63121;51.458;-0.110;2023-04-03T04:17:30;7.97;;;1.33;;
74614;SDS011;63121;51.458;-0.110;2023-04-03T04:20:01;5.45;;;1.30;;
74614;SDS011;63121;51.458;-0.110;2023-04-03T04:22:27;4.15;;;0.95;;
74614;SDS011;63121;51.458;-0.110;2023-04-03T04:24:53;4.95;;;1.33;;
74614;SDS011;63121;51.458;-0.110;2023-04-03T04:27:18;4.63;;;1.00;;
74614;SDS011;63121;51.458;-0.110;2023-04-03T04:29:47;6.68;;;1.50;;
74614;SDS011;63121;51.458;-0.110;2023-04-03T04:32:15;9.23;;;1.30;;
74614;SDS011;63121;51.458;-0.110;2023-04-03T04:34:41;5.13;;;1.20;;
74614;SDS011;63121;51.458;-0.110;2023-04-03T04:37:06;4.28;;;1.00;;
74614;SDS011;63121;51.458;-0.110;2023-04-03T04:39:32;4.80;;;1.10;;
74614;SDS011;63121;51.458;-0.110;2023-04-03T04:41:57;5.33;;;1.03;;
74614;SDS011;63121;51.458;-0.110;2023-04-03T04:44:22;5.05;;;1.25;;
74614;SDS011;63121;51.458;-0.110;2023-04-03T04:46:48;5.72;;;1.20;;
74614;SDS011;63121;51.458;-0.110;2023-04-03T04:49:13;5.20;;;1.20;;
74614;SDS011;63121;51.458;-0.110;2023-04-03T04:51:38;6.13;;;1.50;;
74614;SDS011;63121;51.458;-0.110;2023-04-03T04:54:04;7.93;;;1.20;;
74614;SDS011;63121;51.458;-0.110;2023-04-03T04:56:31;5.30;;;1.23;;
74614;SDS011;63121;51.458;-0.110;2023-04-03T04:58:56;4.70;;;1.10;;
74614;SDS011;63121;51.458;-0.110;2023-04-03T05:01:21;6.60;;;1.23;;
74614;SDS011;63121;51.458;-0.110;2023-04-03T05:03:47;6.33;;;1.30;;
74614;SDS011;63121;51.458;-0.110;2023-04-03T05:06:13;6.03;;;1.58;;
74614;SDS011;63121;51.458;-0.110;2023-04-03T05:08:38;5.43;;;1.20;;
74614;SDS011;63121;51.458;-0.110;2023-04-03T05:11:04;5.03;;;1.30;;
74614;SDS011;63121;51.458;-0.110;2023-04-03T05:13:29;6.53;;;1.65;;
74614;SDS011;63121;51.458;-0.110;2023-04-03T05:15:55;6.95;;;1.52;;
74614;SDS011;63121;51.458;-0.110;2023-04-03T05:18:20;5.07;;;1.45;;
74614;SDS011;63121;51.458;-0.110;2023-04-03T05:20:47;5.83;;;1.23;;
74614;SDS011;63121;51.458;-0.110;2023-04-03T05:23:16;4.95;;;1.20;;
74614;SDS011;63121;51.458;-0.110;2023-04-03T05:25:42;4.70;;;1.17;;
74614;SDS011;63121;51.458;-0.110;2023-04-03T05:28:10;8.75;;;1.42;;
74614;SDS011;63121;51.458;-0.110;2023-04-03T05:30:35;5.35;;;1.20;;
74614;SDS011;63121;51.458;-0.110;2023-04-03T05:33:01;9.47;;;1.77;;
74614;SDS011;63121;51.458;-0.110;2023-04-03T05:35:36;7.15;;;1.33;;
74614;SDS011;63121;51.458;-0.110;2023-04-03T05:38:05;3.70;;;1.08;;
74614;SDS011;63121;51.458;-0.110;2023-04-03T05:40:31;6.57;;;1.45;;
74614;SDS011;63121;51.458;-0.110;2023-04-03T05:42:56;5.35;;;1.30;;
74614;SDS011;63121;51.458;-0.110;2023-04-03T05:45:22;7.95;;;1.70;;
74614;SDS011;63121;51.458;-0.110;2023-04-03T05:47:47;6.00;;;1.60;;
74614;SDS011;63121;51.458;-0.110;2023-04-03T05:50:13;6.15;;;1.63;;
74614;SDS011;63121;51.458;-0.110;2023-04-03T05:52:40;6.65;;;1.38;;
74614;SDS011;63121;51.458;-0.110;2023-04-03T05:55:09;5.88;;;1.45;;
74614;SDS011;63121;51.458;-0.110;2023-04-03T05:57:35;6.55;;;1.30;;
74614;SDS011;63121;51.458;-0.110;2023-04-03T06:00:00;5.53;;;1.48;;
74614;SDS011;63121;51.458;-0.110;2023-04-03T06:02:29;4.68;;;1.52;;
74614;SDS011;63121;51.458;-0.110;2023-04-03T06:04:54;11.40;;;2.35;;
74614;SDS011;63121;51.458;-0.110;2023-04-03T06:07:20;5.03;;;1.35;;
74614;SDS011;63121;51.458;-0.110;2023-04-03T06:09:48;5.97;;;1.80;;
74614;SDS011;63121;51.458;-0.110;2023-04-03T06:12:14;8.77;;;1.90;;
74614;SDS011;63121;51.458;-0.110;2023-04-03T06:14:40;9.10;;;1.75;;
74614;SDS011;63121;51.458;-0.110;2023-04-03T06:17:06;7.47;;;1.77;;
74614;SDS011;63121;51.458;-0.110;2023-04-03T06:19:33;8.07;;;1.50;;
74614;SDS011;63121;51.458;-0.110;2023-04-03T06:21:59;6.00;;;1.35;;
74614;SDS011;63121;51.458;-0.110;2023-04-03T06:24:24;7.53;;;1.93;;
74614;SDS011;63121;51.458;-0.110;2023-04-03T06:26:50;6.25;;;1.58;;
74614;SDS011;63121;51.458;-0.110;2023-04-03T06:29:19;6.03;;;1.88;;
74614;SDS011;63121;51.458;-0.110;2023-04-03T06:31:45;6.20;;;1.95;;
74614;SDS011;63121;51.458;-0.110;2023-04-03T06:34:11;6.05;;;1.70;;
74614;SDS011;63121;51.458;-0.110;2023-04-03T06:36:40;8.00;;;1.80;;
74614;SDS011;63121;51.458;-0.110;2023-04-03T06:39:05;6.25;;;1.75;;
74614;SDS011;63121;51.458;-0.110;2023-04-03T06:41:31;8.48;;;2.15;;
74614;SDS011;63121;51.458;-0.110;2023-04-03T06:43:57;10.75;;;2.10;;
74614;SDS011;63121;51.458;-0.110;2023-04-03T06:46:23;9.73;;;1.80;;
74614;SDS011;63121;51.458;-0.110;2023-04-03T06:48:50;8.43;;;1.67;;
74614;SDS011;63121;51.458;-0.110;2023-04-03T06:51:18;6.72;;;1.70;;
74614;SDS011;63121;51.458;-0.110;2023-04-03T06:53:52;6.90;;;1.80;;
74614;SDS011;63121;51.458;-0.110;2023-04-03T06:56:19;7.20;;;1.70;;
74614;SDS011;63121;51.458;-0.110;2023-04-03T06:58:45;9.27;;;1.83;;
74614;SDS011;63121;51.458;-0.110;2023-04-03T07:01:11;6.18;;;1.65;;
74614;SDS011;63121;51.458;-0.110;2023-04-03T07:03:39;5.57;;;1.65;;
74614;SDS011;63121;51.458;-0.110;2023-04-03T07:06:05;8.20;;;1.60;;
74614;SDS011;63121;51.458;-0.110;2023-04-03T07:08:41;8.73;;;1.80;;
74614;SDS011;63121;51.458;-0.110;2023-04-03T07:11:07;8.50;;;1.65;;
74614;SDS011;63121;51.458;-0.110;2023-04-03T07:16:02;7.70;;;1.70;;
74614;SDS011;63121;51.458;-0.110;2023-04-03T07:18:30;5.82;;;1.60;;
74614;SDS011;63121;51.458;-0.110;2023-04-03T07:20:56;7.05;;;1.42;;
74614;SDS011;63121;51.458;-0.110;2023-04-03T07:23:22;6.45;;;1.50;;
74614;SDS011;63121;51.458;-0.110;2023-04-03T07:25:49;5.90;;;1.60;;
74614;SDS011;63121;51.458;-0.110;2023-04-03T07:28:16;7.50;;;2.03;;
74614;SDS011;63121;51.458;-0.110;2023-04-03T07:33:09;7.25;;;2.22;;
74614;SDS011;63121;51.458;-0.110;2023-04-03T07:35:38;6.70;;;1.73;;
74614;SDS011;63121;51.458;-0.110;2023-04-03T07:38:04;11.75;;;1.83;;
74614;SDS011;63121;51.458;-0.110;2023-04-03T07:40:30;9.43;;;1.83;;
74614;SDS011;63121;51.458;-0.110;2023-04-03T07:42:56;9.15;;;2.80;;
74614;SDS011;63121;51.458;-0.110;2023-04-03T07:45:21;8.68;;;2.25;;
74614;SDS011;63121;51.458;-0.110;2023-04-03T07:47:47;8.27;;;1.92;;
74614;SDS011;63121;51.458;-0.110;2023-04-03T07:50:16;8.30;;;1.80;;
74614;SDS011;63121;51.458;-0.110;2023-04-03T07:52:42;8.60;;;1.73;;
74614;SDS011;63121;51.458;-0.110;2023-04-03T07:55:08;10.05;;;2.22;;
74614;SDS011;63121;51.458;-0.110;2023-04-03T07:57:34;7.57;;;2.08;;
74614;SDS011;63121;51.458;-0.110;2023-04-03T08:00:00;7.65;;;1.90;;
74614;SDS011;63121;51.458;-0.110;2023-04-03T08:02:26;7.47;;;2.00;;
74614;SDS011;63121;51.458;-0.110;2023-04-03T08:04:51;10.00;;;2.55;;
74614;SDS011;63121;51.458;-0.110;2023-04-03T08:07:17;6.13;;;1.70;;
74614;SDS011;63121;51.458;-0.110;2023-04-03T08:09:42;9.00;;;2.10;;
74614;SDS011;63121;51.458;-0.110;2023-04-03T08:12:09;9.82;;;1.90;;
74614;SDS011;63121;51.458;-0.110;2023-04-03T08:14:36;9.00;;;2.22;;
74614;SDS011;63121;51.458;-0.110;2023-04-03T08:17:03;8.40;;;2.40;;
74614;SDS011;63121;51.458;-0.110;2023-04-03T08:19:30;9.98;;;2.53;;
74614;SDS011;63121;51.458;-0.110;2023-04-03T08:21:55;13.10;;;2.58;;
74614;SDS011;63121;51.458;-0.110;2023-04-03T08:24:23;6.55;;;1.80;;
74614;SDS011;63121;51.458;-0.110;2023-04-03T08:26:49;7.30;;;2.08;;
74614;SDS011;63121;51.458;-0.110;2023-04-03T08:29:15;7.47;;;1.48;;
74614;SDS011;63121;51.458;-0.110;2023-04-03T08:31:40;8.68;;;2.17;;
74614;SDS011;63121;51.458;-0.110;2023-04-03T08:34:06;8.50;;;2.20;;
74614;SDS011;63121;51.458;-0.110;2023-04-03T08:36:31;11.02;;;2.67;;
74614;SDS011;63121;51.458;-0.110;2023-04-03T08:38:57;10.55;;;2.00;;
74614;SDS011;63121;51.458;-0.110;2023-04-03T08:41:35;10.77;;;2.15;;
74614;SDS011;63121;51.458;-0.110;2023-04-03T08:49:53;8.88;;;2.28;;
74614;SDS011;63121;51.458;-0.110;2023-04-03T08:54:57;7.43;;;2.00;;
74614;SDS011;63121;51.458;-0.110;2023-04-03T08:57:27;10.82;;;3.00;;
74614;SDS011;63121;51.458;-0.110;2023-04-03T09:00:23;7.85;;;2.45;;
74614;SDS011;63121;51.458;-0.110;2023-04-03T09:02:51;10.20;;;2.40;;
74614;SDS011;63121;51.458;-0.110;2023-04-03T09:05:29;8.85;;;2.58;;
74614;SDS011;63121;51.458;-0.110;2023-04-03T09:08:22;8.90;;;2.88;;
74614;SDS011;63121;51.458;-0.110;2023-04-03T09:10:52;11.98;;;2.60;;
74614;SDS011;63121;51.458;-0.110;2023-04-03T09:16:27;11.38;;;3.00;;
74614;SDS011;63121;51.458;-0.110;2023-04-03T09:19:18;10.48;;;3.08;;
74614;SDS011;63121;51.458;-0.110;2023-04-03T09:22:17;8.05;;;2.60;;
74614;SDS011;63121;51.458;-0.110;2023-04-03T09:24:47;11.38;;;3.53;;
74614;SDS011;63121;51.458;-0.110;2023-04-03T09:27:17;8.95;;;2.90;;
74614;SDS011;63121;51.458;-0.110;2023-04-03T09:29:43;11.50;;;3.75;;
74614;SDS011;63121;51.458;-0.110;2023-04-03T09:35:01;10.32;;;2.58;;
74614;SDS011;63121;51.458;-0.110;2023-04-03T09:40:03;9.65;;;2.40;;
74614;SDS011;63121;51.458;-0.110;2023-04-03T09:42:31;9.27;;;2.78;;
74614;SDS011;63121;51.458;-0.110;2023-04-03T09:44:59;10.80;;;3.17;;
74614;SDS011;63121;51.458;-0.110;2023-04-03T09:47:31;12.38;;;3.28;;
74614;SDS011;63121;51.458;-0.110;2023-04-03T09:52:48;12.82;;;3.90;;
74614;SDS011;63121;51.458;-0.110;2023-04-03T09:57:52;11.65;;;2.97;;
74614;SDS011;63121;51.458;-0.110;2023-04-03T10:00:22;9.57;;;2.78;;
74614;SDS011;63121;51.458;-0.110;2023-04-03T10:03:01;8.88;;;2.80;;
74614;SDS011;63121;51.458;-0.110;2023-04-03T10:08:10;11.65;;;2.63;;
74614;SDS011;63121;51.458;-0.110;2023-04-03T10:10:35;7.47;;;2.63;;
74614;SDS011;63121;51.458;-0.110;2023-04-03T10:13:06;8.48;;;2.50;;
74614;SDS011;63121;51.458;-0.110;2023-04-03T10:15:42;10.75;;;2.80;;
74614;SDS011;63121;51.458;-0.110;2023-04-03T10:18:20;8.60;;;2.53;;
74614;SDS011;63121;51.458;-0.110;2023-04-03T10:20:53;7.38;;;2.47;;
74614;SDS011;63121;51.458;-0.110;2023-04-03T10:23:26;7.90;;;2.83;;
74614;SDS011;63121;51.458;-0.110;2023-04-03T10:29:25;11.15;;;2.40;;
74614;SDS011;63121;51.458;-0.110;2023-04-03T10:34:43;8.65;;;2.85;;
74614;SDS011;63121;51.458;-0.110;2023-04-03T10:43:04;10.27;;;2.55;;
74614;SDS011;63121;51.458;-0.110;2023-04-03T10:51:29;7.47;;;2.88;;
74614;SDS011;63121;51.458;-0.110;2023-04-03T10:56:51;6.70;;;1.95;;
74614;SDS011;63121;51.458;-0.110;2023-04-03T10:59:32;7.80;;;2.42;;
74614;SDS011;63121;51.458;-0.110;2023-04-03T11:07:29;8.07;;;2.47;;
74614;SDS011;63121;51.458;-0.110;2023-04-03T11:10:21;6.90;;;2.22;;
74614;SDS011;63121;51.458;-0.110;2023-04-03T11:12:56;8.18;;;2.50;;
74614;SDS011;63121;51.458;-0.110;2023-04-03T11:15:32;6.30;;;1.95;;
74614;SDS011;63121;51.458;-0.110;2023-04-03T11:18:17;8.77;;;2.47;;
74614;SDS011;63121;51.458;-0.110;2023-04-03T11:20:52;8.45;;;2.38;;
74614;SDS011;63121;51.458;-0.110;2023-04-03T11:23:33;7.15;;;2.20;;
74614;SDS011;63121;51.458;-0.110;2023-04-03T11:26:08;7.07;;;2.33;;
74614;SDS011;63121;51.458;-0.110;2023-04-03T11:28:56;12.15;;;2.70;;
74614;SDS011;63121;51.458;-0.110;2023-04-03T11:36:59;7.80;;;2.35;;
74614;SDS011;63121;51.458;-0.110;2023-04-03T11:39:31;6.90;;;2.45;;
74614;SDS011;63121;51.458;-0.110;2023-04-03T11:47:48;6.65;;;2.10;;
74614;SDS011;63121;51.458;-0.110;2023-04-03T11:56:00;6.82;;;2.08;;
74614;SDS011;63121;51.458;-0.110;2023-04-03T11:58:31;6.45;;;2.17;;
74614;SDS011;63121;51.458;-0.110;2023-04-03T12:11:14;6.78;;;2.25;;
74614;SDS011;63121;51.458;-0.110;2023-04-03T12:21:15;7.18;;;2.13;;
74614;SDS011;63121;51.458;-0.110;2023-04-03T12:23:57;8.27;;;2.38;;
74614;SDS011;63121;51.458;-0.110;2023-04-03T12:34:42;6.20;;;1.95;;
74614;SDS011;63121;51.458;-0.110;2023-04-03T12:43:34;6.53;;;2.00;;
74614;SDS011;63121;51.458;-0.110;2023-04-03T12:47:06;6.47;;;1.90;;
74614;SDS011;63121;51.458;-0.110;2023-04-03T12:52:00;8.07;;;1.88;;
74614;SDS011;63121;51.458;-0.110;2023-04-03T12:54:45;8.95;;;2.00;;
74614;SDS011;63121;51.458;-0.110;2023-04-03T12:57:23;5.97;;;1.90;;
74614;SDS011;63121;51.458;-0.110;2023-04-03T12:59:51;5.40;;;1.50;;
74614;SDS011;63121;51.458;-0.110;2023-04-03T13:02:21;7.00;;;1.70;;
74614;SDS011;63121;51.458;-0.110;2023-04-03T13:04:50;5.40;;;1.70;;
74614;SDS011;63121;51.458;-0.110;2023-04-03T13:07:33;6.07;;;1.80;;
74614;SDS011;63121;51.458;-0.110;2023-04-03T13:12:32;4.50;;;1.50;;
74614;SDS011;63121;51.458;-0.110;2023-04-03T13:16:01;4.65;;;1.60;;
74614;SDS011;63121;51.458;-0.110;2023-04-03T13:17:58;6.70;;;2.00;;
74614;SDS011;63121;51.458;-0.110;2023-04-03T13:20:26;5.38;;;1.65;;
74614;SDS011;63121;51.458;-0.110;2023-04-03T13:23:00;6.30;;;1.70;;
74614;SDS011;63121;51.458;-0.110;2023-04-03T13:25:26;5.80;;;1.67;;
74614;SDS011;63121;51.458;-0.110;2023-04-03T13:27:56;4.82;;;1.38;;
74614;SDS011;63121;51.458;-0.110;2023-04-03T13:30:31;7.18;;;1.75;;
74614;SDS011;63121;51.458;-0.110;2023-04-03T13:33:19;4.45;;;1.50;;
74614;SDS011;63121;51.458;-0.110;2023-04-03T13:35:47;6.45;;;1.65;;
74614;SDS011;63121;51.458;-0.110;2023-04-03T13:40:51;5.97;;;1.65;;
74614;SDS011;63121;51.458;-0.110;2023-04-03T13:43:23;5.57;;;1.60;;
74614;SDS011;63121;51.458;-0.110;2023-04-03T13:45:57;6.03;;;1.70;;
74614;SDS011;63121;51.458;-0.110;2023-04-03T13:48:23;6.07;;;1.30;;
74614;SDS011;63121;51.458;-0.110;2023-04-03T13:53:31;6.13;;;1.40;;
74614;SDS011;63121;51.458;-0.110;2023-04-03T13:58:28;4.22;;;1.48;;
74614;SDS011;63121;51.458;-0.110;2023-04-03T14:01:11;4.10;;;1.23;;
74614;SDS011;63121;51.458;-0.110;2023-04-03T14:03:44;4.88;;;1.55;;
74614;SDS011;63121;51.458;-0.110;2023-04-03T14:06:13;5.47;;;1.55;;
74614;SDS011;63121;51.458;-0.110;2023-04-03T14:08:40;5.40;;;1.58;;
74614;SDS011;63121;51.458;-0.110;2023-04-03T14:11:08;5.55;;;1.58;;
74614;SDS011;63121;51.458;-0.110;2023-04-03T14:13:48;5.03;;;1.25;;
74614;SDS011;63121;51.458;-0.110;2023-04-03T14:16:23;6.63;;;1.60;;
74614;SDS011;63121;51.458;-0.110;2023-04-03T14:18:52;4.93;;;1.65;;
74614;SDS011;63121;51.458;-0.110;2023-04-03T14:21:18;5.60;;;1.40;;
74614;SDS011;63121;51.458;-0.110;2023-04-03T14:23:45;3.40;;;1.40;;
74614;SDS011;63121;51.458;-0.110;2023-04-03T14:26:15;10.55;;;2.13;;
74614;SDS011;63121;51.458;-0.110;2023-04-03T14:28:43;6.82;;;1.48;;
74614;SDS011;63121;51.458;-0.110;2023-04-03T14:31:15;5.70;;;1.77;;
74614;SDS011;63121;51.458;-0.110;2023-04-03T14:33:42;5.85;;;2.08;;
74614;SDS011;63121;51.458;-0.110;2023-04-03T14:36:11;5.60;;;1.70;;
74614;SDS011;63121;51.458;-0.110;2023-04-03T14:38:38;5.32;;;1.60;;
74614;SDS011;63121;51.458;-0.110;2023-04-03T14:41:03;6.60;;;1.90;;
74614;SDS011;63121;51.458;-0.110;2023-04-03T14:43:29;7.38;;;2.55;;
74614;SDS011;63121;51.458;-0.110;2023-04-03T14:45:55;4.47;;;1.80;;
74614;SDS011;63121;51.458;-0.110;2023-04-03T14:48:22;5.80;;;1.85;;
74614;SDS011;63121;51.458;-0.110;2023-04-03T14:50:52;6.32;;;2.00;;
74614;SDS011;63121;51.458;-0.110;2023-04-03T14:53:20;6.88;;;2.00;;
74614;SDS011;63121;51.458;-0.110;2023-04-03T14:55:51;6.20;;;1.90;;
74614;SDS011;63121;51.458;-0.110;2023-04-03T14:58:18;7.50;;;2.17;;
74614;SDS011;63121;51.458;-0.110;2023-04-03T15:00:45;8.43;;;2.33;;
74614;SDS011;63121;51.458;-0.110;2023-04-03T15:03:18;6.45;;;2.20;;
74614;SDS011;63121;51.458;-0.110;2023-04-03T15:05:46;8.25;;;2.13;;
74614;SDS011;63121;51.458;-0.110;2023-04-03T15:08:16;5.82;;;1.77;;
74614;SDS011;63121;51.458;-0.110;2023-04-03T15:10:44;6.63;;;2.00;;
74614;SDS011;63121;51.458;-0.110;2023-04-03T15:13:12;6.35;;;2.22;;
74614;SDS011;63121;51.458;-0.110;2023-04-03T15:15:38;7.60;;;2.40;;
74614;SDS011;63121;51.458;-0.110;2023-04-03T15:18:04;6.13;;;1.95;;
74614;SDS011;63121;51.458;-0.110;2023-04-03T15:20:30;6.38;;;1.88;;
74614;SDS011;63121;51.458;-0.110;2023-04-03T15:22:58;4.35;;;1.80;;
74614;SDS011;63121;51.458;-0.110;2023-04-03T15:25:28;6.90;;;2.13;;
74614;SDS011;63121;51.458;-0.110;2023-04-03T15:27:55;5.95;;;2.22;;
74614;SDS011;63121;51.458;-0.110;2023-04-03T15:32:47;6.20;;;2.00;;
74614;SDS011;63121;51.458;-0.110;2023-04-03T15:35:13;7.25;;;1.95;;
74614;SDS011;63121;51.458;-0.110;2023-04-03T15:37:38;8.30;;;1.83;;
74614;SDS011;63121;51.458;-0.110;2023-04-03T15:40:04;5.88;;;1.73;;
74614;SDS011;63121;51.458;-0.110;2023-04-03T15:42:31;5.45;;;1.80;;
74614;SDS011;63121;51.458;-0.110;2023-04-03T15:44:57;4.60;;;1.70;;
74614;SDS011;63121;51.458;-0.110;2023-04-03T15:47:30;7.82;;;2.10;;
74614;SDS011;63121;51.458;-0.110;2023-04-03T15:49:55;6.07;;;1.80;;
74614;SDS011;63121;51.458;-0.110;2023-04-03T15:52:21;6.40;;;1.73;;
74614;SDS011;63121;51.458;-0.110;2023-04-03T15:54:47;5.70;;;2.05;;
74614;SDS011;63121;51.458;-0.110;2023-04-03T15:57:14;5.35;;;1.90;;
74614;SDS011;63121;51.458;-0.110;2023-04-03T15:59:40;6.50;;;1.70;;
74614;SDS011;63121;51.458;-0.110;2023-04-03T16:02:05;7.53;;;2.20;;
74614;SDS011;63121;51.458;-0.110;2023-04-03T16:04:35;6.70;;;2.03;;
74614;SDS011;63121;51.458;-0.110;2023-04-03T16:07:03;7.35;;;2.03;;
74614;SDS011;63121;51.458;-0.110;2023-04-03T16:09:29;6.72;;;2.08;;
74614;SDS011;63121;51.458;-0.110;2023-04-03T16:11:59;6.65;;;2.08;;
74614;SDS011;63121;51.458;-0.110;2023-04-03T16:14:25;5.60;;;1.88;;
74614;SDS011;63121;51.458;-0.110;2023-04-03T16:16:52;7.05;;;2.08;;
74614;SDS011;63121;51.458;-0.110;2023-04-03T16:19:18;7.88;;;2.15;;
74614;SDS011;63121;51.458;-0.110;2023-04-03T16:21:45;8.05;;;1.67;;
74614;SDS011;63121;51.458;-0.110;2023-04-03T16:24:11;4.78;;;1.60;;
74614;SDS011;63121;51.458;-0.110;2023-04-03T16:26:37;7.07;;;1.80;;
74614;SDS011;63121;51.458;-0.110;2023-04-03T16:29:02;6.50;;;1.50;;
74614;SDS011;63121;51.458;-0.110;2023-04-03T16:31:28;6.10;;;1.50;;
74614;SDS011;63121;51.458;-0.110;2023-04-03T16:33:54;5.57;;;1.40;;
74614;SDS011;63121;51.458;-0.110;2023-04-03T16:36:21;6.13;;;1.52;;
74614;SDS011;63121;51.458;-0.110;2023-04-03T16:38:47;4.93;;;1.40;;
74614;SDS011;63121;51.458;-0.110;2023-04-03T16:41:12;5.32;;;1.45;;
74614;SDS011;63121;51.458;-0.110;2023-04-03T16:43:38;3.70;;;1.35;;
74614;SDS011;63121;51.458;-0.110;2023-04-03T16:46:03;6.20;;;1.83;;
74614;SDS011;63121;51.458;-0.110;2023-04-03T16:48:29;6.10;;;1.85;;
74614;SDS011;63121;51.458;-0.110;2023-04-03T16:50:55;4.70;;;1.50;;
74614;SDS011;63121;51.458;-0.110;2023-04-03T16:53:21;7.80;;;1.60;;